createdAt,value
2022-12-03T00:01:28.212Z,27.52
2022-12-03T00:03:58.425Z,25.95
2022-12-03T00:06:30.144Z,31.30
2022-12-03T00:09:00.277Z,30.15
2022-12-03T00:11:27.515Z,30.60
2022-12-03T00:13:55.150Z,28.17
2022-12-03T00:16:22.595Z,27.77
2022-12-03T00:18:49.863Z,27.88
2022-12-03T00:21:17.130Z,27.92
2022-12-03T00:23:44.807Z,28.35
2022-12-03T00:26:12.008Z,27.30
2022-12-03T00:28:40.151Z,27.10
2022-12-03T00:31:07.499Z,25.83
2022-12-03T00:33:35.265Z,28.23
2022-12-03T00:36:02.549Z,25.85
2022-12-03T00:38:37.011Z,30.33
2022-12-03T00:41:04.384Z,31.15
2022-12-03T00:43:32.069Z,28.77
2022-12-03T00:45:59.380Z,27.98
2022-12-03T00:48:26.854Z,25.83
2022-12-03T00:50:54.150Z,25.50
2022-12-03T00:53:21.588Z,25.27
2022-12-03T00:55:51.686Z,29.55
2022-12-03T00:58:21.957Z,29.50
2022-12-03T01:00:49.196Z,28.25
2022-12-03T01:03:19.001Z,29.08
2022-12-03T01:05:46.213Z,30.83
2022-12-03T01:08:15.961Z,29.35
2022-12-03T01:10:43.221Z,28.17
2022-12-03T01:13:10.613Z,29.63
2022-12-03T01:15:37.883Z,28.90
2022-12-03T01:18:07.329Z,29.90
2022-12-03T01:20:36.372Z,31.40
2022-12-03T01:23:03.633Z,29.52
2022-12-03T01:25:33.933Z,27.90
2022-12-03T01:28:01.598Z,29.05
2022-12-03T01:30:51.373Z,28.33
2022-12-03T01:33:18.592Z,29.23
2022-12-03T01:35:48.525Z,25.80
2022-12-03T01:38:16.264Z,30.85
2022-12-03T01:40:45.665Z,32.08
2022-12-03T01:43:12.909Z,31.38
2022-12-03T01:45:40.193Z,29.38
2022-12-03T01:48:12.052Z,28.50
2022-12-03T01:50:39.301Z,27.05
2022-12-03T01:53:06.555Z,30.77
2022-12-03T01:55:33.802Z,31.80
2022-12-03T01:58:02.395Z,27.30
2022-12-03T02:00:30.659Z,29.17
2022-12-03T02:03:03.893Z,30.90
2022-12-03T02:08:02.449Z,28.80
2022-12-03T02:10:34.749Z,29.75
2022-12-03T02:13:10.720Z,29.05
2022-12-03T02:15:40.338Z,30.98
2022-12-03T02:18:11.350Z,28.80
2022-12-03T02:20:50.346Z,34.13
2022-12-03T02:23:41.537Z,34.60
2022-12-03T02:26:09.195Z,35.28
2022-12-03T02:28:38.069Z,32.20
2022-12-03T02:31:05.990Z,32.78
2022-12-03T02:33:36.442Z,32.42
2022-12-03T02:36:04.391Z,32.00
2022-12-03T02:38:35.064Z,32.85
2022-12-03T02:41:09.405Z,30.75
2022-12-03T02:43:37.810Z,29.58
2022-12-03T02:46:07.840Z,28.70
2022-12-03T02:48:37.572Z,30.10
2022-12-03T02:51:08.702Z,33.42
2022-12-03T02:53:42.436Z,29.83
2022-12-03T02:56:13.708Z,29.73
2022-12-03T02:58:43.251Z,33.50
2022-12-03T03:01:11.256Z,30.02
2022-12-03T03:03:41.518Z,32.83
2022-12-03T03:06:09.818Z,29.70
2022-12-03T03:08:39.246Z,33.70
2022-12-03T03:11:06.469Z,29.90
2022-12-03T03:13:37.441Z,31.85
2022-12-03T03:16:06.122Z,29.08
2022-12-03T03:18:34.275Z,29.10
2022-12-03T03:21:02.227Z,25.77
2022-12-03T03:23:29.649Z,29.83
2022-12-03T03:26:08.059Z,26.73
2022-12-03T03:28:41.709Z,27.80
2022-12-03T03:31:13.718Z,29.13
2022-12-03T03:33:43.103Z,27.83
2022-12-03T03:36:12.815Z,28.10
2022-12-03T03:38:41.076Z,30.30
2022-12-03T03:41:10.378Z,29.08
2022-12-03T03:43:41.116Z,33.33
2022-12-03T03:46:09.162Z,30.80
2022-12-03T03:48:37.267Z,27.63
2022-12-03T03:51:09.281Z,24.52
2022-12-03T03:53:40.042Z,30.48
2022-12-03T03:56:09.248Z,30.98
2022-12-03T03:58:37.095Z,30.83
2022-12-03T04:01:07.009Z,29.65
2022-12-03T04:03:34.764Z,29.88
2022-12-03T04:06:02.925Z,34.05
2022-12-03T04:08:30.379Z,28.02
2022-12-03T04:11:18.560Z,31.63
2022-12-03T04:13:46.278Z,34.10
2022-12-03T04:16:13.972Z,28.85
2022-12-03T04:18:44.802Z,30.80
2022-12-03T04:21:32.959Z,31.15
2022-12-03T04:24:00.798Z,29.92
2022-12-03T04:26:46.457Z,29.77
2022-12-03T04:29:14.009Z,31.55
2022-12-03T04:32:00.135Z,30.35
2022-12-03T04:35:08.232Z,29.08
2022-12-03T04:37:35.478Z,29.45
2022-12-03T04:40:22.765Z,29.08
2022-12-03T04:42:54.881Z,33.15
2022-12-03T04:45:22.075Z,28.10
2022-12-03T04:47:49.299Z,30.88
2022-12-03T04:50:18.877Z,29.60
2022-12-03T04:52:46.178Z,26.33
2022-12-03T04:55:13.390Z,31.10
2022-12-03T04:57:40.985Z,31.40
2022-12-03T05:00:10.877Z,27.58
2022-12-03T05:02:40.635Z,31.63
2022-12-03T05:05:08.447Z,32.65
2022-12-03T05:07:37.990Z,27.83
2022-12-03T05:10:06.245Z,33.03
2022-12-03T05:12:36.024Z,33.83
2022-12-03T05:15:06.631Z,29.85
2022-12-03T05:17:33.875Z,34.40
2022-12-03T05:20:19.499Z,32.08
2022-12-03T05:22:46.905Z,28.85
2022-12-03T05:25:14.291Z,26.52
2022-12-03T05:27:41.518Z,32.53
2022-12-03T05:30:09.321Z,29.05
2022-12-03T05:32:38.725Z,30.45
2022-12-03T05:35:06.300Z,29.73
2022-12-03T05:37:33.557Z,30.55
2022-12-03T05:40:01.181Z,37.75
2022-12-03T05:42:46.670Z,31.40
2022-12-03T05:45:13.927Z,31.55
2022-12-03T05:47:41.139Z,29.48
2022-12-03T05:50:08.610Z,31.23
2022-12-03T05:52:35.877Z,31.45
2022-12-03T05:55:03.264Z,34.38
2022-12-03T05:57:32.966Z,34.22
2022-12-03T06:00:00.225Z,29.65
2022-12-03T06:02:30.255Z,33.80
2022-12-03T06:04:57.587Z,36.78
2022-12-03T06:07:26.927Z,33.03
2022-12-03T06:09:57.129Z,37.22
2022-12-03T06:12:24.364Z,32.90
2022-12-03T06:14:52.717Z,31.48
2022-12-03T06:17:22.301Z,34.25
2022-12-03T06:19:49.819Z,34.72
2022-12-03T06:22:17.588Z,32.80
2022-12-03T06:24:47.383Z,34.30
2022-12-03T06:27:14.785Z,39.45
2022-12-03T06:29:42.094Z,32.72
2022-12-03T06:32:09.846Z,30.67
2022-12-03T06:34:37.520Z,36.00
2022-12-03T06:37:04.891Z,28.10
2022-12-03T06:39:32.091Z,29.42
2022-12-03T06:41:59.284Z,34.25
2022-12-03T06:44:26.502Z,28.48
2022-12-03T06:46:53.946Z,36.53
2022-12-03T06:49:21.762Z,32.00
2022-12-03T06:51:48.955Z,37.03
2022-12-03T06:54:16.222Z,31.55
2022-12-03T06:56:45.405Z,34.90
2022-12-03T06:59:13.984Z,36.80
2022-12-03T07:01:44.407Z,32.58
2022-12-03T07:04:11.736Z,31.75
2022-12-03T07:06:39.901Z,31.88
2022-12-03T07:09:07.110Z,30.88
2022-12-03T07:11:40.360Z,35.55
2022-12-03T07:16:40.016Z,34.85
2022-12-03T07:19:10.419Z,30.40
2022-12-03T07:21:38.046Z,33.13
2022-12-03T07:24:08.384Z,35.67
2022-12-03T07:26:38.661Z,29.42
2022-12-03T07:29:05.952Z,30.73
2022-12-03T07:31:33.299Z,34.33
2022-12-03T07:34:02.847Z,33.83
2022-12-03T07:36:32.487Z,34.58
2022-12-03T07:39:00.141Z,34.63
2022-12-03T07:41:27.813Z,32.45
2022-12-03T07:43:55.014Z,33.33
2022-12-03T07:46:22.710Z,35.70
2022-12-03T07:48:52.449Z,31.77
2022-12-03T07:51:25.076Z,33.60
2022-12-03T07:53:57.501Z,34.95
2022-12-03T07:56:27.469Z,37.13
2022-12-03T07:58:55.206Z,35.40
2022-12-03T08:01:23.177Z,32.55
2022-12-03T08:03:52.698Z,35.95
2022-12-03T08:06:19.960Z,35.85
2022-12-03T08:08:47.185Z,38.40
2022-12-03T08:11:15.659Z,34.88
2022-12-03T08:13:43.101Z,35.72
2022-12-03T08:16:16.943Z,38.10
2022-12-03T08:18:47.868Z,36.35
2022-12-03T08:21:18.003Z,34.65
2022-12-03T08:23:45.985Z,34.67
2022-12-03T08:26:22.955Z,35.92
2022-12-03T08:28:53.453Z,33.45
2022-12-03T08:31:32.391Z,38.95
2022-12-03T08:34:34.113Z,31.52
2022-12-03T08:37:16.677Z,38.05
2022-12-03T08:39:48.349Z,36.85
2022-12-03T08:42:41.850Z,31.80
2022-12-03T08:45:40.786Z,39.38
2022-12-03T08:48:34.225Z,33.13
2022-12-03T08:51:25.024Z,36.30
2022-12-03T08:54:01.488Z,37.72
2022-12-03T08:56:33.408Z,34.10
2022-12-03T08:59:28.721Z,39.92
2022-12-03T09:01:58.578Z,37.92
2022-12-03T09:04:34.922Z,32.97
2022-12-03T09:07:04.317Z,37.40
2022-12-03T09:09:36.452Z,37.10
2022-12-03T09:12:06.826Z,33.92
2022-12-03T09:14:36.346Z,34.40
2022-12-03T09:17:06.440Z,38.35
2022-12-03T09:19:33.794Z,37.45
2022-12-03T09:22:01.765Z,38.13
2022-12-03T09:24:29.588Z,35.95
2022-12-03T09:26:59.738Z,33.03
2022-12-03T09:29:26.932Z,33.33
2022-12-03T09:31:54.220Z,40.40
2022-12-03T09:34:21.601Z,40.53
2022-12-03T09:36:48.808Z,36.90
2022-12-03T09:39:16.030Z,37.28
2022-12-03T09:41:46.398Z,38.15
2022-12-03T09:44:17.849Z,32.45
2022-12-03T09:46:47.855Z,32.25
2022-12-03T09:49:18.156Z,34.42
2022-12-03T09:51:48.125Z,33.53
2022-12-03T09:54:47.357Z,39.85
2022-12-03T09:57:16.767Z,34.40
2022-12-03T09:59:44.526Z,33.55
2022-12-03T10:02:22.661Z,33.20
2022-12-03T10:04:53.117Z,37.00
2022-12-03T10:07:20.974Z,31.40
2022-12-03T10:09:50.764Z,31.85
2022-12-03T10:12:25.791Z,35.15
2022-12-03T10:14:55.927Z,36.25
2022-12-03T10:17:23.405Z,33.63
2022-12-03T10:19:51.415Z,38.97
2022-12-03T10:22:21.083Z,32.03
2022-12-03T10:25:09.308Z,36.22
2022-12-03T10:27:36.532Z,36.83
2022-12-03T10:30:14.283Z,34.15
2022-12-03T10:32:52.004Z,32.80
2022-12-03T10:35:21.308Z,32.08
2022-12-03T10:38:02.908Z,36.72
2022-12-03T10:40:36.188Z,36.53
2022-12-03T10:43:23.962Z,32.45
2022-12-03T10:46:04.544Z,34.33
2022-12-03T10:48:32.080Z,33.13
2022-12-03T10:51:06.972Z,32.90
2022-12-03T10:53:37.528Z,38.53
2022-12-03T10:56:13.505Z,37.38
2022-12-03T10:58:42.137Z,34.97
2022-12-03T11:01:21.991Z,32.30
2022-12-03T11:03:49.747Z,31.98
2022-12-03T11:06:22.624Z,32.92
2022-12-03T11:09:02.687Z,36.38
2022-12-03T11:11:34.286Z,31.13
2022-12-03T11:14:06.469Z,32.40
2022-12-03T11:16:42.477Z,30.45
2022-12-03T11:19:41.930Z,28.27
2022-12-03T11:22:12.488Z,28.20
2022-12-03T11:24:40.659Z,27.48
2022-12-03T11:27:11.373Z,31.33
2022-12-03T11:30:01.099Z,31.45
2022-12-03T11:32:43.637Z,29.38
2022-12-03T11:35:16.137Z,32.42
2022-12-03T11:37:46.341Z,30.73
2022-12-03T11:40:19.512Z,29.85
2022-12-03T11:42:48.907Z,28.13
2022-12-03T11:45:21.611Z,30.20
2022-12-03T11:48:13.593Z,32.58
2022-12-03T11:50:44.515Z,29.40
2022-12-03T11:53:18.568Z,27.80
2022-12-03T11:56:06.083Z,31.65
2022-12-03T11:58:34.461Z,32.42
2022-12-03T12:01:04.296Z,33.30
2022-12-03T12:03:49.843Z,28.17
2022-12-03T12:06:20.838Z,30.02
2022-12-03T12:08:59.161Z,28.50
2022-12-03T12:11:34.676Z,30.20
2022-12-03T12:14:07.293Z,29.17
2022-12-03T12:17:03.242Z,27.23
2022-12-03T12:19:42.534Z,29.15
2022-12-03T12:22:14.402Z,32.95
2022-12-03T12:24:54.852Z,31.33
2022-12-03T12:27:45.516Z,27.33
2022-12-03T12:30:21.609Z,31.80
2022-12-03T12:33:14.265Z,28.30
2022-12-03T12:35:44.416Z,34.33
2022-12-03T12:38:21.670Z,34.55
2022-12-03T12:40:51.127Z,30.90
2022-12-03T12:43:26.025Z,32.78
2022-12-03T12:46:05.691Z,32.55
2022-12-03T12:48:46.239Z,34.37
2022-12-03T12:51:18.660Z,32.30
2022-12-03T12:53:49.053Z,33.40
2022-12-03T12:56:27.124Z,33.08
2022-12-03T12:58:57.237Z,33.83
2022-12-03T13:01:32.292Z,36.22
2022-12-03T13:04:03.284Z,32.35
2022-12-03T13:06:32.164Z,36.90
2022-12-03T13:09:02.200Z,33.90
2022-12-03T13:11:45.752Z,31.55
2022-12-03T13:14:26.888Z,35.17
2022-12-03T13:16:55.999Z,29.45
2022-12-03T13:19:39.586Z,30.02
2022-12-03T13:22:21.254Z,31.42
2022-12-03T13:24:55.788Z,30.13
2022-12-03T13:27:32.718Z,31.00
2022-12-03T13:30:14.118Z,31.88
2022-12-03T13:32:46.406Z,32.83
2022-12-03T13:35:24.883Z,31.80
2022-12-03T13:37:55.040Z,33.55
2022-12-03T13:40:32.900Z,32.92
2022-12-03T13:43:04.429Z,31.80
2022-12-03T13:45:37.826Z,29.20
2022-12-03T13:50:53.940Z,29.15
2022-12-03T13:53:23.870Z,28.95
2022-12-03T13:55:56.924Z,34.28
2022-12-03T13:58:26.723Z,36.70
2022-12-03T14:00:56.434Z,32.00
2022-12-03T14:03:26.169Z,32.70
2022-12-03T14:05:53.925Z,33.05
2022-12-03T14:08:23.570Z,34.17
2022-12-03T14:10:59.930Z,31.95
2022-12-03T14:13:28.403Z,32.38
2022-12-03T14:16:00.710Z,31.50
2022-12-03T14:18:27.934Z,33.60
2022-12-03T14:20:57.256Z,36.28
2022-12-03T14:23:24.511Z,30.02
2022-12-03T14:25:54.596Z,35.20
2022-12-03T14:28:21.967Z,34.10
2022-12-03T14:30:52.091Z,34.80
2022-12-03T14:33:21.718Z,32.72
2022-12-03T14:35:54.221Z,32.72
2022-12-03T14:38:23.964Z,29.90
2022-12-03T14:40:53.377Z,34.15
2022-12-03T14:43:20.638Z,33.35
2022-12-03T14:45:48.476Z,35.83
2022-12-03T14:48:16.723Z,34.83
2022-12-03T14:50:43.943Z,30.50
2022-12-03T14:53:11.526Z,38.05
2022-12-03T14:55:38.776Z,33.97
2022-12-03T14:58:06.464Z,33.30
2022-12-03T15:00:36.509Z,37.80
2022-12-03T15:03:04.443Z,39.80
2022-12-03T15:05:31.834Z,38.25
2022-12-03T15:07:59.122Z,32.85
2022-12-03T15:10:28.913Z,37.70
2022-12-03T15:12:56.626Z,40.78
2022-12-03T15:15:24.316Z,42.00
2022-12-03T15:17:51.536Z,32.53
2022-12-03T15:20:19.623Z,34.25
2022-12-03T15:22:46.832Z,35.25
2022-12-03T15:25:14.624Z,39.03
2022-12-03T15:27:41.846Z,34.80
2022-12-03T15:30:11.706Z,35.17
2022-12-03T15:32:39.607Z,38.17
2022-12-03T15:35:10.220Z,36.03
2022-12-03T15:37:39.615Z,32.05
2022-12-03T15:40:07.892Z,35.88
2022-12-03T15:42:35.121Z,37.15
2022-12-03T15:45:05.057Z,35.15
2022-12-03T15:47:32.840Z,38.80
2022-12-03T15:50:02.759Z,33.00
2022-12-03T15:52:30.011Z,34.30
2022-12-03T15:54:57.806Z,34.35
2022-12-03T15:57:25.580Z,40.20
2022-12-03T15:59:57.788Z,39.30
2022-12-03T16:02:25.202Z,36.92
2022-12-03T16:04:52.433Z,37.40
2022-12-03T16:07:20.126Z,37.35
2022-12-03T16:09:47.397Z,39.45
2022-12-03T16:12:15.143Z,39.90
2022-12-03T16:14:42.856Z,38.33
2022-12-03T16:17:10.161Z,38.38
2022-12-03T16:19:38.288Z,40.72
2022-12-03T16:22:08.495Z,39.05
2022-12-03T16:24:35.806Z,35.88
2022-12-03T16:27:03.543Z,38.72
2022-12-03T16:29:30.920Z,38.33
2022-12-03T16:32:01.884Z,39.50
2022-12-03T16:34:30.232Z,48.55
2022-12-03T16:36:59.712Z,40.75
2022-12-03T16:39:29.080Z,45.22
2022-12-03T16:41:56.922Z,40.17
2022-12-03T16:44:43.805Z,40.08
2022-12-03T16:47:11.242Z,42.92
2022-12-03T16:49:38.920Z,44.50
2022-12-03T16:52:13.230Z,43.83
2022-12-03T16:54:40.968Z,39.38
2022-12-03T16:57:08.602Z,45.78
2022-12-03T16:59:38.301Z,42.70
2022-12-03T17:02:10.138Z,43.38
2022-12-03T17:04:37.881Z,39.80
2022-12-03T17:07:05.555Z,41.47
2022-12-03T17:09:35.302Z,41.92
2022-12-03T17:12:05.150Z,45.90
2022-12-03T17:14:33.598Z,42.63
2022-12-03T17:17:03.703Z,42.72
2022-12-03T17:19:30.895Z,42.10
2022-12-03T17:21:59.717Z,44.05
2022-12-03T17:24:27.069Z,44.83
2022-12-03T17:26:54.282Z,38.72
2022-12-03T17:29:23.739Z,43.00
2022-12-03T17:31:53.550Z,50.17
2022-12-03T17:34:21.255Z,44.25
2022-12-03T17:36:48.510Z,43.83
2022-12-03T17:39:16.243Z,46.47
2022-12-03T17:41:43.895Z,47.50
2022-12-03T17:44:19.285Z,49.55
2022-12-03T17:46:52.911Z,51.42
2022-12-03T17:49:26.905Z,51.17
2022-12-03T17:51:57.301Z,47.47
2022-12-03T17:54:43.173Z,47.55
2022-12-03T17:57:14.371Z,45.67
2022-12-03T17:59:41.764Z,51.20
2022-12-03T18:02:09.390Z,47.85
2022-12-03T18:04:37.138Z,50.92
2022-12-03T18:07:06.872Z,49.30
2022-12-03T18:09:34.572Z,44.75
2022-12-03T18:12:02.431Z,53.25
2022-12-03T18:14:29.711Z,46.47
2022-12-03T18:16:57.034Z,56.03
2022-12-03T18:19:29.417Z,49.55
2022-12-03T18:21:57.252Z,48.83
2022-12-03T18:24:27.473Z,52.55
2022-12-03T18:26:56.835Z,50.65
2022-12-03T18:29:27.078Z,47.75
2022-12-03T18:31:54.409Z,49.05
2022-12-03T18:34:23.931Z,48.00
2022-12-03T18:36:51.236Z,48.10
2022-12-03T18:39:29.048Z,49.42
2022-12-03T18:41:56.270Z,49.10
2022-12-03T18:44:23.572Z,51.88
2022-12-03T18:46:53.872Z,50.13
2022-12-03T18:49:22.464Z,50.53
2022-12-03T18:51:57.533Z,56.03
2022-12-03T18:54:27.115Z,51.40
2022-12-03T18:56:54.795Z,49.17
2022-12-03T18:59:24.694Z,46.22
2022-12-03T19:01:54.789Z,46.92
2022-12-03T19:04:22.679Z,47.92
2022-12-03T19:06:50.356Z,56.03
2022-12-03T19:09:18.162Z,48.53
2022-12-03T19:11:48.094Z,49.63
2022-12-03T19:14:15.389Z,45.00
2022-12-03T19:16:44.249Z,49.47
2022-12-03T19:19:12.017Z,54.03
2022-12-03T19:21:39.263Z,49.45
2022-12-03T19:26:55.478Z,47.70
2022-12-03T19:29:23.252Z,46.85
2022-12-03T19:31:51.930Z,51.25
2022-12-03T19:34:20.042Z,50.47
2022-12-03T19:36:47.803Z,45.67
2022-12-03T19:39:17.502Z,44.67
2022-12-03T19:41:45.421Z,45.38
2022-12-03T19:44:14.853Z,44.47
2022-12-03T19:46:42.994Z,45.88
2022-12-03T19:49:13.540Z,39.95
2022-12-03T19:51:40.776Z,43.17
2022-12-03T19:54:10.753Z,46.00
2022-12-03T19:56:38.668Z,46.58
2022-12-03T19:59:09.545Z,45.88
2022-12-03T20:01:40.380Z,47.05
2022-12-03T20:04:12.480Z,44.42
2022-12-03T20:06:40.804Z,47.05
2022-12-03T20:09:13.263Z,49.53
2022-12-03T20:11:41.672Z,48.43
2022-12-03T20:14:13.623Z,51.72
2022-12-03T20:16:41.827Z,45.70
2022-12-03T20:19:15.106Z,43.88
2022-12-03T20:24:17.435Z,49.08
2022-12-03T20:26:47.315Z,48.88
2022-12-03T20:29:15.173Z,46.08
2022-12-03T20:31:42.979Z,51.70
2022-12-03T20:34:13.420Z,43.90
2022-12-03T20:36:40.709Z,42.53
2022-12-03T20:39:11.107Z,47.13
2022-12-03T20:41:38.554Z,47.42
2022-12-03T20:44:08.567Z,48.33
2022-12-03T20:46:36.292Z,48.33
2022-12-03T20:49:04.544Z,44.08
2022-12-03T20:51:33.032Z,44.97
2022-12-03T20:54:01.114Z,47.70
2022-12-03T20:56:34.573Z,46.17
2022-12-03T20:59:10.929Z,44.17
2022-12-03T21:01:38.568Z,45.42
2022-12-03T21:04:08.825Z,47.33
2022-12-03T21:06:37.002Z,45.08
2022-12-03T21:09:09.159Z,45.83
2022-12-03T21:11:41.631Z,48.45
2022-12-03T21:14:11.220Z,40.47
2022-12-03T21:17:07.131Z,47.75
2022-12-03T21:19:35.813Z,43.20
2022-12-03T21:22:03.042Z,49.15
2022-12-03T21:24:30.254Z,42.92
2022-12-03T21:26:58.013Z,47.92
2022-12-03T21:29:25.342Z,43.13
2022-12-03T21:31:52.575Z,46.47
2022-12-03T21:34:22.452Z,46.40
2022-12-03T21:36:49.692Z,44.05
2022-12-03T21:39:16.909Z,43.47
2022-12-03T21:42:33.353Z,45.80
2022-12-03T21:44:31.436Z,49.10
2022-12-03T21:47:09.670Z,46.22
2022-12-03T21:49:42.089Z,45.15
2022-12-03T21:52:11.896Z,46.72
2022-12-03T21:54:39.577Z,48.10
2022-12-03T21:57:07.244Z,45.97
2022-12-03T21:59:36.937Z,43.33
2022-12-03T22:02:04.372Z,46.22
2022-12-03T22:04:32.208Z,48.15
2022-12-03T22:06:59.960Z,52.45
2022-12-03T22:09:27.795Z,46.20
2022-12-03T22:11:56.909Z,48.28
2022-12-03T22:14:24.674Z,44.80
2022-12-03T22:16:52.352Z,41.05
2022-12-03T22:19:25.657Z,47.47
2022-12-03T22:24:20.851Z,48.90
2022-12-03T22:26:48.189Z,46.00
2022-12-03T22:29:18.101Z,50.67
2022-12-03T22:31:45.922Z,46.88
2022-12-03T22:34:15.939Z,50.70
2022-12-03T22:36:43.198Z,44.10
2022-12-03T22:39:10.478Z,49.97
2022-12-03T22:41:37.720Z,46.42
2022-12-03T22:44:06.228Z,48.35
2022-12-03T22:46:36.248Z,39.33
2022-12-03T22:49:07.419Z,44.58
2022-12-03T22:51:37.965Z,43.13
2022-12-03T22:54:06.420Z,43.58
2022-12-03T22:56:37.349Z,46.10
2022-12-03T22:59:05.718Z,45.25
2022-12-03T23:01:36.741Z,43.20
2022-12-03T23:04:07.748Z,43.97
2022-12-03T23:06:39.873Z,46.58
2022-12-03T23:09:07.958Z,42.40
2022-12-03T23:11:36.075Z,49.30
2022-12-03T23:14:03.974Z,43.40
2022-12-03T23:16:33.094Z,49.63
2022-12-03T23:19:02.248Z,38.03
2022-12-03T23:21:32.955Z,44.05
2022-12-03T23:24:05.020Z,37.03
2022-12-03T23:26:39.447Z,47.85
2022-12-03T23:29:09.233Z,43.58
2022-12-03T23:31:37.087Z,50.50
2022-12-03T23:34:09.241Z,48.28
2022-12-03T23:36:36.586Z,44.80
2022-12-03T23:39:06.381Z,50.38
2022-12-03T23:41:34.098Z,44.55
2022-12-03T23:44:01.825Z,43.20
2022-12-03T23:46:29.193Z,45.65
2022-12-03T23:49:00.113Z,48.45
2022-12-03T23:51:27.397Z,42.83
2022-12-03T23:53:55.351Z,48.40
2022-12-03T23:56:29.099Z,43.97
2022-12-03T23:58:58.302Z,45.50
